This is the latest recevied weather packets stored in our database for station/object LRSM. If no packets are shown the sender has not sent any weather packets the latest 10 day(s).
| Time | Temp. | Humidity | Pressure | Rain* | Wind** | Luminosity | Snow |
|---|---|---|---|---|---|---|---|
| 1777659513 | 12.22° C | 44% | 1023 hPa | - | - | - | - |
| 1777658635 | 12.22° C | 44% | 1023 hPa | - | - | - | - |
| 1777657713 | 12.78° C | 41% | 1023 hPa | - | - | - | - |
| 1777656812 | 12.78° C | 41% | 1023 hPa | - | - | - | - |
| 1777655937 | 13.89° C | 39% | 1023 hPa | - | - | - | - |
| 1777655012 | 13.89° C | 39% | 1023 hPa | - | - | - | - |
| 1777654112 | 15° C | 34% | 1023 hPa | - | - | - | - |
| 1777653212 | 15° C | 34% | 1023 hPa | - | - | - | - |
| 1777652312 | 15° C | 31% | 1023 hPa | - | - | - | - |
| 1777651413 | 15° C | 31% | 1023 hPa | - | - | - | - |
| 1777650512 | 16.11° C | 27% | 1024 hPa | - | - | - | - |
| 1777649612 | 16.11° C | 27% | 1024 hPa | - | - | - | - |
| 1777648713 | 16.11° C | 27% | 1024 hPa | - | - | - | - |
| 1777647812 | 16.11° C | 27% | 1024 hPa | - | - | - | - |
| 1777646950 | 17.22° C | 25% | 1024 hPa | - | - | - | - |
| 1777646092 | 17.22° C | 25% | 1024 hPa | - | - | - | - |
| 1777645110 | 16.11° C | 27% | 1024 hPa | - | - | - | - |
| 1777644212 | 16.11° C | 27% | 1024 hPa | - | - | - | - |
| 1777643313 | 17.22° C | 24% | 1024 hPa | - | - | - | - |
| 1777642413 | 17.22° C | 24% | 1024 hPa | - | - | - | - |
| 1777641513 | 17.22° C | 24% | 1024 hPa | - | - | - | - |
| 1777640612 | 17.22° C | 24% | 1024 hPa | - | - | - | - |
| 1777639712 | 15° C | 27% | 1025 hPa | - | - | - | - |
| 1777638812 | 15° C | 27% | 1025 hPa | - | - | - | - |
| 1777637928 | 16.11° C | 25% | 1025 hPa | - | - | - | - |
* Rain since midnight (hover to see other rain measurements)
** Current wind speed in m/s (hover to see current wind gust speed)